sensor_id;sensor_type;location;lat;lon;timestamp;P1;durP1;ratioP1;P2;durP2;ratioP2
46845;SDS011;33947;46.804;134.252;2024-02-26T00:03:05;76.97;;;31.70;;
46845;SDS011;33947;46.804;134.252;2024-02-26T00:06:25;81.72;;;28.70;;
46845;SDS011;33947;46.804;134.252;2024-02-26T00:09:41;84.38;;;31.88;;
46845;SDS011;33947;46.804;134.252;2024-02-26T00:12:56;134.73;;;42.40;;
46845;SDS011;33947;46.804;134.252;2024-02-26T00:16:29;74.65;;;27.52;;
46845;SDS011;33947;46.804;134.252;2024-02-26T00:20:09;81.05;;;32.03;;
46845;SDS011;33947;46.804;134.252;2024-02-26T00:23:50;112.85;;;45.50;;
46845;SDS011;33947;46.804;134.252;2024-02-26T00:27:10;94.70;;;36.30;;
46845;SDS011;33947;46.804;134.252;2024-02-26T00:34:30;48.80;;;17.02;;
46845;SDS011;33947;46.804;134.252;2024-02-26T00:37:50;39.60;;;17.50;;
46845;SDS011;33947;46.804;134.252;2024-02-26T00:40:57;31.10;;;15.35;;
46845;SDS011;33947;46.804;134.252;2024-02-26T00:44:04;46.28;;;19.83;;
46845;SDS011;33947;46.804;134.252;2024-02-26T00:47:11;37.28;;;16.42;;
46845;SDS011;33947;46.804;134.252;2024-02-26T00:50:21;49.38;;;20.30;;
46845;SDS011;33947;46.804;134.252;2024-02-26T00:53:28;34.08;;;14.68;;
46845;SDS011;33947;46.804;134.252;2024-02-26T00:56:35;26.05;;;12.63;;
46845;SDS011;33947;46.804;134.252;2024-02-26T00:59:43;22.17;;;12.18;;
46845;SDS011;33947;46.804;134.252;2024-02-26T01:02:50;23.30;;;11.77;;
46845;SDS011;33947;46.804;134.252;2024-02-26T01:05:59;19.42;;;8.85;;
46845;SDS011;33947;46.804;134.252;2024-02-26T01:09:06;14.95;;;8.13;;
46845;SDS011;33947;46.804;134.252;2024-02-26T01:12:13;19.13;;;8.45;;
46845;SDS011;33947;46.804;134.252;2024-02-26T01:15:21;24.90;;;10.18;;
46845;SDS011;33947;46.804;134.252;2024-02-26T01:18:28;18.67;;;9.07;;
46845;SDS011;33947;46.804;134.252;2024-02-26T01:21:37;26.35;;;10.40;;
46845;SDS011;33947;46.804;134.252;2024-02-26T01:24:45;22.25;;;9.18;;
46845;SDS011;33947;46.804;134.252;2024-02-26T01:27:52;17.98;;;8.05;;
46845;SDS011;33947;46.804;134.252;2024-02-26T01:30:59;22.52;;;9.48;;
46845;SDS011;33947;46.804;134.252;2024-02-26T01:34:09;19.98;;;9.38;;
46845;SDS011;33947;46.804;134.252;2024-02-26T01:37:18;19.13;;;8.68;;
46845;SDS011;33947;46.804;134.252;2024-02-26T01:40:26;15.77;;;7.57;;
46845;SDS011;33947;46.804;134.252;2024-02-26T01:43:34;22.13;;;11.90;;
46845;SDS011;33947;46.804;134.252;2024-02-26T01:46:41;20.08;;;10.32;;
46845;SDS011;33947;46.804;134.252;2024-02-26T01:49:48;24.02;;;11.43;;
46845;SDS011;33947;46.804;134.252;2024-02-26T01:52:57;28.13;;;14.10;;
46845;SDS011;33947;46.804;134.252;2024-02-26T01:56:05;23.30;;;11.38;;
46845;SDS011;33947;46.804;134.252;2024-02-26T01:59:12;25.55;;;12.88;;
46845;SDS011;33947;46.804;134.252;2024-02-26T02:02:20;28.73;;;13.07;;
46845;SDS011;33947;46.804;134.252;2024-02-26T02:05:26;29.80;;;14.20;;
46845;SDS011;33947;46.804;134.252;2024-02-26T02:08:35;36.33;;;14.52;;
46845;SDS011;33947;46.804;134.252;2024-02-26T02:11:43;24.80;;;11.85;;
46845;SDS011;33947;46.804;134.252;2024-02-26T02:14:50;24.80;;;14.77;;
46845;SDS011;33947;46.804;134.252;2024-02-26T02:17:57;18.70;;;10.98;;
46845;SDS011;33947;46.804;134.252;2024-02-26T02:21:06;20.45;;;10.63;;
46845;SDS011;33947;46.804;134.252;2024-02-26T02:24:13;27.38;;;12.93;;
46845;SDS011;33947;46.804;134.252;2024-02-26T02:27:23;21.20;;;11.45;;
46845;SDS011;33947;46.804;134.252;2024-02-26T02:30:31;25.75;;;13.38;;
46845;SDS011;33947;46.804;134.252;2024-02-26T02:33:40;26.50;;;11.18;;
46845;SDS011;33947;46.804;134.252;2024-02-26T02:36:53;24.80;;;11.05;;
46845;SDS011;33947;46.804;134.252;2024-02-26T02:40:00;22.48;;;11.63;;
46845;SDS011;33947;46.804;134.252;2024-02-26T02:43:09;21.30;;;10.23;;
46845;SDS011;33947;46.804;134.252;2024-02-26T02:46:16;22.42;;;11.43;;
46845;SDS011;33947;46.804;134.252;2024-02-26T02:49:23;23.65;;;11.60;;
46845;SDS011;33947;46.804;134.252;2024-02-26T02:52:32;21.75;;;11.15;;
46845;SDS011;33947;46.804;134.252;2024-02-26T02:55:39;20.58;;;10.55;;
46845;SDS011;33947;46.804;134.252;2024-02-26T02:58:46;95.88;;;25.27;;
46845;SDS011;33947;46.804;134.252;2024-02-26T03:01:54;20.35;;;9.13;;
46845;SDS011;33947;46.804;134.252;2024-02-26T03:05:01;18.42;;;8.57;;
46845;SDS011;33947;46.804;134.252;2024-02-26T03:08:11;22.92;;;10.80;;
46845;SDS011;33947;46.804;134.252;2024-02-26T03:11:17;16.88;;;9.23;;
46845;SDS011;33947;46.804;134.252;2024-02-26T03:14:24;18.17;;;9.57;;
46845;SDS011;33947;46.804;134.252;2024-02-26T03:17:31;20.40;;;9.43;;
46845;SDS011;33947;46.804;134.252;2024-02-26T03:20:39;22.02;;;9.57;;
46845;SDS011;33947;46.804;134.252;2024-02-26T03:23:47;24.58;;;11.32;;
46845;SDS011;33947;46.804;134.252;2024-02-26T03:26:55;11.35;;;5.22;;
46845;SDS011;33947;46.804;134.252;2024-02-26T03:30:02;20.30;;;8.45;;
46845;SDS011;33947;46.804;134.252;2024-02-26T03:33:13;16.25;;;6.35;;
46845;SDS011;33947;46.804;134.252;2024-02-26T03:36:22;87.90;;;24.13;;
46845;SDS011;33947;46.804;134.252;2024-02-26T03:39:32;202.93;;;39.28;;
46845;SDS011;33947;46.804;134.252;2024-02-26T03:42:39;113.22;;;23.65;;
46845;SDS011;33947;46.804;134.252;2024-02-26T03:45:46;11.05;;;5.38;;
46845;SDS011;33947;46.804;134.252;2024-02-26T03:48:53;21.98;;;9.93;;
46845;SDS011;33947;46.804;134.252;2024-02-26T03:52:00;47.95;;;31.48;;
46845;SDS011;33947;46.804;134.252;2024-02-26T03:55:09;9.95;;;5.32;;
46845;SDS011;33947;46.804;134.252;2024-02-26T03:58:15;17.35;;;11.93;;
46845;SDS011;33947;46.804;134.252;2024-02-26T04:01:22;19.48;;;8.60;;
46845;SDS011;33947;46.804;134.252;2024-02-26T04:04:29;27.30;;;10.77;;
46845;SDS011;33947;46.804;134.252;2024-02-26T04:07:40;9.43;;;4.95;;
46845;SDS011;33947;46.804;134.252;2024-02-26T04:10:49;24.40;;;9.82;;
46845;SDS011;33947;46.804;134.252;2024-02-26T04:13:55;68.38;;;20.08;;
46845;SDS011;33947;46.804;134.252;2024-02-26T04:17:02;17.25;;;7.63;;
46845;SDS011;33947;46.804;134.252;2024-02-26T04:20:13;22.00;;;9.50;;
46845;SDS011;33947;46.804;134.252;2024-02-26T04:23:20;12.13;;;5.05;;
46845;SDS011;33947;46.804;134.252;2024-02-26T04:26:29;18.70;;;8.27;;
46845;SDS011;33947;46.804;134.252;2024-02-26T04:29:36;8.77;;;5.10;;
46845;SDS011;33947;46.804;134.252;2024-02-26T04:32:44;13.38;;;6.60;;
46845;SDS011;33947;46.804;134.252;2024-02-26T04:35:51;9.50;;;5.15;;
46845;SDS011;33947;46.804;134.252;2024-02-26T04:38:58;25.45;;;9.27;;
46845;SDS011;33947;46.804;134.252;2024-02-26T04:42:07;14.18;;;5.78;;
46845;SDS011;33947;46.804;134.252;2024-02-26T04:45:14;16.45;;;7.47;;
46845;SDS011;33947;46.804;134.252;2024-02-26T04:48:21;12.40;;;6.55;;
46845;SDS011;33947;46.804;134.252;2024-02-26T04:51:29;211.40;;;93.55;;
46845;SDS011;33947;46.804;134.252;2024-02-26T04:54:36;9.60;;;6.00;;
46845;SDS011;33947;46.804;134.252;2024-02-26T04:57:44;20.05;;;9.38;;
46845;SDS011;33947;46.804;134.252;2024-02-26T05:00:52;40.90;;;15.35;;
46845;SDS011;33947;46.804;134.252;2024-02-26T05:04:00;12.63;;;6.65;;
46845;SDS011;33947;46.804;134.252;2024-02-26T05:07:09;15.35;;;6.93;;
46845;SDS011;33947;46.804;134.252;2024-02-26T05:10:16;46.22;;;14.20;;
46845;SDS011;33947;46.804;134.252;2024-02-26T05:13:26;25.45;;;10.02;;
46845;SDS011;33947;46.804;134.252;2024-02-26T05:16:36;45.38;;;14.25;;
46845;SDS011;33947;46.804;134.252;2024-02-26T05:19:43;13.60;;;6.57;;
46845;SDS011;33947;46.804;134.252;2024-02-26T05:22:50;38.28;;;15.02;;
46845;SDS011;33947;46.804;134.252;2024-02-26T05:26:01;9.90;;;5.43;;
46845;SDS011;33947;46.804;134.252;2024-02-26T05:29:09;28.42;;;11.35;;
46845;SDS011;33947;46.804;134.252;2024-02-26T05:32:16;14.90;;;7.25;;
46845;SDS011;33947;46.804;134.252;2024-02-26T05:35:23;10.95;;;5.45;;
46845;SDS011;33947;46.804;134.252;2024-02-26T05:38:30;11.82;;;5.55;;
46845;SDS011;33947;46.804;134.252;2024-02-26T05:41:40;25.00;;;13.00;;
46845;SDS011;33947;46.804;134.252;2024-02-26T05:44:49;28.33;;;9.50;;
46845;SDS011;33947;46.804;134.252;2024-02-26T05:47:56;10.93;;;6.18;;
46845;SDS011;33947;46.804;134.252;2024-02-26T05:51:04;10.98;;;5.93;;
46845;SDS011;33947;46.804;134.252;2024-02-26T05:54:11;12.02;;;5.30;;
46845;SDS011;33947;46.804;134.252;2024-02-26T05:57:19;11.05;;;5.50;;
46845;SDS011;33947;46.804;134.252;2024-02-26T06:00:28;10.00;;;5.55;;
46845;SDS011;33947;46.804;134.252;2024-02-26T06:03:35;16.85;;;7.53;;
46845;SDS011;33947;46.804;134.252;2024-02-26T06:06:42;15.63;;;6.80;;
46845;SDS011;33947;46.804;134.252;2024-02-26T06:09:49;15.15;;;6.40;;
46845;SDS011;33947;46.804;134.252;2024-02-26T06:12:57;13.45;;;5.93;;
46845;SDS011;33947;46.804;134.252;2024-02-26T06:16:07;16.10;;;6.72;;
46845;SDS011;33947;46.804;134.252;2024-02-26T06:19:14;12.57;;;5.55;;
46845;SDS011;33947;46.804;134.252;2024-02-26T06:22:21;12.40;;;6.57;;
46845;SDS011;33947;46.804;134.252;2024-02-26T06:25:28;14.90;;;7.13;;
46845;SDS011;33947;46.804;134.252;2024-02-26T06:28:36;13.68;;;6.28;;
46845;SDS011;33947;46.804;134.252;2024-02-26T06:31:46;14.80;;;7.03;;
46845;SDS011;33947;46.804;134.252;2024-02-26T06:34:54;15.73;;;6.82;;
46845;SDS011;33947;46.804;134.252;2024-02-26T06:38:02;16.20;;;6.53;;
46845;SDS011;33947;46.804;134.252;2024-02-26T06:41:09;12.73;;;6.60;;
46845;SDS011;33947;46.804;134.252;2024-02-26T06:44:17;11.38;;;6.72;;
46845;SDS011;33947;46.804;134.252;2024-02-26T06:47:26;15.02;;;6.65;;
46845;SDS011;33947;46.804;134.252;2024-02-26T06:50:32;14.43;;;6.25;;
46845;SDS011;33947;46.804;134.252;2024-02-26T06:53:39;12.15;;;6.40;;
46845;SDS011;33947;46.804;134.252;2024-02-26T06:56:46;18.60;;;9.57;;
46845;SDS011;33947;46.804;134.252;2024-02-26T06:59:55;15.52;;;8.02;;
46845;SDS011;33947;46.804;134.252;2024-02-26T07:03:05;18.42;;;7.40;;
46845;SDS011;33947;46.804;134.252;2024-02-26T07:06:12;16.88;;;9.63;;
46845;SDS011;33947;46.804;134.252;2024-02-26T07:09:20;20.20;;;10.05;;
46845;SDS011;33947;46.804;134.252;2024-02-26T07:12:27;23.02;;;11.50;;
46845;SDS011;33947;46.804;134.252;2024-02-26T07:15:35;19.00;;;10.68;;
46845;SDS011;33947;46.804;134.252;2024-02-26T07:18:45;22.73;;;9.93;;
46845;SDS011;33947;46.804;134.252;2024-02-26T07:21:58;17.85;;;8.02;;
46845;SDS011;33947;46.804;134.252;2024-02-26T07:25:06;28.20;;;13.20;;
46845;SDS011;33947;46.804;134.252;2024-02-26T07:28:20;37.33;;;14.60;;
46845;SDS011;33947;46.804;134.252;2024-02-26T07:31:31;26.65;;;13.15;;
46845;SDS011;33947;46.804;134.252;2024-02-26T07:34:39;19.30;;;9.88;;
46845;SDS011;33947;46.804;134.252;2024-02-26T07:37:48;31.77;;;15.43;;
46845;SDS011;33947;46.804;134.252;2024-02-26T07:40:56;66.95;;;25.90;;
46845;SDS011;33947;46.804;134.252;2024-02-26T07:44:06;40.72;;;19.52;;
46845;SDS011;33947;46.804;134.252;2024-02-26T07:47:13;40.70;;;18.08;;
46845;SDS011;33947;46.804;134.252;2024-02-26T07:50:21;48.92;;;25.02;;
46845;SDS011;33947;46.804;134.252;2024-02-26T07:53:29;46.63;;;22.85;;
46845;SDS011;33947;46.804;134.252;2024-02-26T07:56:36;34.35;;;18.23;;
46845;SDS011;33947;46.804;134.252;2024-02-26T07:59:43;49.15;;;22.42;;
46845;SDS011;33947;46.804;134.252;2024-02-26T08:02:53;61.70;;;32.83;;
46845;SDS011;33947;46.804;134.252;2024-02-26T08:06:02;61.38;;;27.77;;
46845;SDS011;33947;46.804;134.252;2024-02-26T08:09:10;106.97;;;46.05;;
46845;SDS011;33947;46.804;134.252;2024-02-26T08:12:17;89.68;;;43.20;;
46845;SDS011;33947;46.804;134.252;2024-02-26T08:15:24;107.60;;;50.75;;
46845;SDS011;33947;46.804;134.252;2024-02-26T08:18:36;160.05;;;60.50;;
46845;SDS011;33947;46.804;134.252;2024-02-26T08:21:46;219.80;;;81.85;;
46845;SDS011;33947;46.804;134.252;2024-02-26T08:24:54;235.52;;;80.97;;
46845;SDS011;33947;46.804;134.252;2024-02-26T08:28:03;185.13;;;68.53;;
46845;SDS011;33947;46.804;134.252;2024-02-26T08:31:11;234.30;;;82.82;;
46845;SDS011;33947;46.804;134.252;2024-02-26T08:34:17;189.82;;;65.38;;
46845;SDS011;33947;46.804;134.252;2024-02-26T08:37:29;88.38;;;34.17;;
46845;SDS011;33947;46.804;134.252;2024-02-26T08:40:38;73.22;;;27.95;;
46845;SDS011;33947;46.804;134.252;2024-02-26T08:43:47;53.50;;;26.60;;
46845;SDS011;33947;46.804;134.252;2024-02-26T08:46:54;55.60;;;26.60;;
46845;SDS011;33947;46.804;134.252;2024-02-26T08:50:00;54.45;;;24.13;;
46845;SDS011;33947;46.804;134.252;2024-02-26T08:53:17;85.70;;;34.22;;
46845;SDS011;33947;46.804;134.252;2024-02-26T08:56:34;86.72;;;35.40;;
46845;SDS011;33947;46.804;134.252;2024-02-26T08:59:43;67.85;;;30.95;;
46845;SDS011;33947;46.804;134.252;2024-02-26T09:02:49;109.35;;;42.70;;
46845;SDS011;33947;46.804;134.252;2024-02-26T09:05:56;143.65;;;46.45;;
46845;SDS011;33947;46.804;134.252;2024-02-26T09:09:05;60.13;;;23.08;;
46845;SDS011;33947;46.804;134.252;2024-02-26T09:12:16;103.45;;;39.22;;
46845;SDS011;33947;46.804;134.252;2024-02-26T09:15:29;127.03;;;47.28;;
46845;SDS011;33947;46.804;134.252;2024-02-26T09:18:36;109.43;;;42.83;;
46845;SDS011;33947;46.804;134.252;2024-02-26T09:21:46;112.18;;;42.38;;
46845;SDS011;33947;46.804;134.252;2024-02-26T09:24:57;102.22;;;42.53;;
46845;SDS011;33947;46.804;134.252;2024-02-26T09:28:05;115.68;;;44.25;;
46845;SDS011;33947;46.804;134.252;2024-02-26T09:31:15;138.15;;;47.50;;
46845;SDS011;33947;46.804;134.252;2024-02-26T09:34:27;154.95;;;45.85;;
46845;SDS011;33947;46.804;134.252;2024-02-26T09:37:35;111.63;;;34.47;;
46845;SDS011;33947;46.804;134.252;2024-02-26T09:40:43;68.90;;;26.58;;
46845;SDS011;33947;46.804;134.252;2024-02-26T09:43:51;75.35;;;27.05;;
46845;SDS011;33947;46.804;134.252;2024-02-26T09:47:01;49.22;;;18.75;;
46845;SDS011;33947;46.804;134.252;2024-02-26T09:50:09;46.08;;;21.00;;
46845;SDS011;33947;46.804;134.252;2024-02-26T09:53:18;63.85;;;26.33;;
46845;SDS011;33947;46.804;134.252;2024-02-26T09:56:29;116.97;;;39.67;;
46845;SDS011;33947;46.804;134.252;2024-02-26T09:59:39;102.50;;;36.47;;
46845;SDS011;33947;46.804;134.252;2024-02-26T10:02:47;39.28;;;18.02;;
46845;SDS011;33947;46.804;134.252;2024-02-26T10:05:54;57.15;;;21.23;;
46845;SDS011;33947;46.804;134.252;2024-02-26T10:09:02;53.65;;;21.83;;
46845;SDS011;33947;46.804;134.252;2024-02-26T10:12:15;60.67;;;22.92;;
46845;SDS011;33947;46.804;134.252;2024-02-26T10:15:23;52.55;;;19.70;;
46845;SDS011;33947;46.804;134.252;2024-02-26T10:18:44;46.67;;;20.85;;
46845;SDS011;33947;46.804;134.252;2024-02-26T10:21:56;32.08;;;15.13;;
46845;SDS011;33947;46.804;134.252;2024-02-26T10:25:04;44.05;;;16.08;;
46845;SDS011;33947;46.804;134.252;2024-02-26T10:28:13;49.97;;;20.90;;
46845;SDS011;33947;46.804;134.252;2024-02-26T10:31:21;36.55;;;16.02;;
46845;SDS011;33947;46.804;134.252;2024-02-26T10:34:30;42.95;;;17.42;;
46845;SDS011;33947;46.804;134.252;2024-02-26T10:37:37;40.22;;;15.60;;
46845;SDS011;33947;46.804;134.252;2024-02-26T10:40:45;32.80;;;13.70;;
46845;SDS011;33947;46.804;134.252;2024-02-26T10:43:53;36.67;;;13.93;;
46845;SDS011;33947;46.804;134.252;2024-02-26T10:47:00;30.92;;;12.48;;
46845;SDS011;33947;46.804;134.252;2024-02-26T10:50:09;35.00;;;13.75;;
46845;SDS011;33947;46.804;134.252;2024-02-26T10:53:20;82.07;;;24.05;;
46845;SDS011;33947;46.804;134.252;2024-02-26T10:56:28;75.03;;;24.55;;
46845;SDS011;33947;46.804;134.252;2024-02-26T10:59:41;59.30;;;25.17;;
46845;SDS011;33947;46.804;134.252;2024-02-26T11:02:50;76.93;;;24.40;;
46845;SDS011;33947;46.804;134.252;2024-02-26T11:05:58;55.15;;;20.65;;
46845;SDS011;33947;46.804;134.252;2024-02-26T11:09:07;79.45;;;23.75;;
46845;SDS011;33947;46.804;134.252;2024-02-26T11:12:18;85.68;;;24.92;;
46845;SDS011;33947;46.804;134.252;2024-02-26T11:15:29;77.82;;;28.33;;
46845;SDS011;33947;46.804;134.252;2024-02-26T11:18:38;108.43;;;33.47;;
46845;SDS011;33947;46.804;134.252;2024-02-26T11:21:47;112.57;;;32.20;;
46845;SDS011;33947;46.804;134.252;2024-02-26T11:24:56;85.75;;;28.25;;
46845;SDS011;33947;46.804;134.252;2024-02-26T11:28:05;74.28;;;26.45;;
46845;SDS011;33947;46.804;134.252;2024-02-26T11:31:17;78.22;;;26.77;;
46845;SDS011;33947;46.804;134.252;2024-02-26T11:34:30;43.43;;;16.20;;
46845;SDS011;33947;46.804;134.252;2024-02-26T11:37:41;36.50;;;15.10;;
46845;SDS011;33947;46.804;134.252;2024-02-26T11:40:56;29.38;;;13.52;;
46845;SDS011;33947;46.804;134.252;2024-02-26T11:44:05;34.33;;;14.32;;
46845;SDS011;33947;46.804;134.252;2024-02-26T11:47:13;45.03;;;18.52;;
46845;SDS011;33947;46.804;134.252;2024-02-26T11:53:51;60.45;;;25.33;;
46845;SDS011;33947;46.804;134.252;2024-02-26T11:57:00;82.57;;;29.77;;
46845;SDS011;33947;46.804;134.252;2024-02-26T12:00:12;58.00;;;23.38;;
46845;SDS011;33947;46.804;134.252;2024-02-26T12:03:22;52.10;;;23.73;;
46845;SDS011;33947;46.804;134.252;2024-02-26T12:06:30;52.75;;;20.77;;
46845;SDS011;33947;46.804;134.252;2024-02-26T12:09:45;64.28;;;25.45;;
46845;SDS011;33947;46.804;134.252;2024-02-26T12:12:58;56.83;;;24.05;;
46845;SDS011;33947;46.804;134.252;2024-02-26T12:16:06;68.22;;;23.70;;
46845;SDS011;33947;46.804;134.252;2024-02-26T12:19:14;72.70;;;26.08;;
46845;SDS011;33947;46.804;134.252;2024-02-26T12:22:21;59.20;;;23.45;;
46845;SDS011;33947;46.804;134.252;2024-02-26T12:25:31;61.78;;;24.75;;
46845;SDS011;33947;46.804;134.252;2024-02-26T12:28:39;64.68;;;24.05;;
46845;SDS011;33947;46.804;134.252;2024-02-26T12:31:47;67.32;;;25.85;;
46845;SDS011;33947;46.804;134.252;2024-02-26T12:34:56;70.78;;;25.73;;
46845;SDS011;33947;46.804;134.252;2024-02-26T12:38:05;57.60;;;26.23;;
46845;SDS011;33947;46.804;134.252;2024-02-26T12:41:15;93.13;;;34.70;;
46845;SDS011;33947;46.804;134.252;2024-02-26T12:44:24;175.35;;;58.25;;
46845;SDS011;33947;46.804;134.252;2024-02-26T12:47:32;105.55;;;37.78;;
46845;SDS011;33947;46.804;134.252;2024-02-26T12:50:44;153.15;;;44.97;;
46845;SDS011;33947;46.804;134.252;2024-02-26T12:53:52;151.63;;;43.72;;
46845;SDS011;33947;46.804;134.252;2024-02-26T12:57:00;154.50;;;49.85;;
46845;SDS011;33947;46.804;134.252;2024-02-26T13:00:14;158.80;;;47.05;;
46845;SDS011;33947;46.804;134.252;2024-02-26T13:03:23;128.95;;;42.08;;
46845;SDS011;33947;46.804;134.252;2024-02-26T13:06:33;85.65;;;31.65;;
46845;SDS011;33947;46.804;134.252;2024-02-26T13:09:41;107.18;;;35.88;;
46845;SDS011;33947;46.804;134.252;2024-02-26T13:12:48;118.35;;;37.42;;
46845;SDS011;33947;46.804;134.252;2024-02-26T13:16:01;119.80;;;35.97;;
46845;SDS011;33947;46.804;134.252;2024-02-26T13:19:09;112.90;;;37.47;;
46845;SDS011;33947;46.804;134.252;2024-02-26T13:22:18;121.25;;;38.45;;
46845;SDS011;33947;46.804;134.252;2024-02-26T13:25:28;126.88;;;40.03;;
46845;SDS011;33947;46.804;134.252;2024-02-26T13:28:35;116.35;;;42.10;;
46845;SDS011;33947;46.804;134.252;2024-02-26T13:31:43;144.98;;;45.25;;
46845;SDS011;33947;46.804;134.252;2024-02-26T13:34:50;166.38;;;50.85;;
46845;SDS011;33947;46.804;134.252;2024-02-26T13:37:59;179.20;;;53.65;;
46845;SDS011;33947;46.804;134.252;2024-02-26T13:41:06;212.27;;;63.58;;
46845;SDS011;33947;46.804;134.252;2024-02-26T13:44:13;201.82;;;62.40;;
46845;SDS011;33947;46.804;134.252;2024-02-26T13:47:20;206.52;;;64.28;;
46845;SDS011;33947;46.804;134.252;2024-02-26T13:50:27;185.68;;;56.70;;
46845;SDS011;33947;46.804;134.252;2024-02-26T13:53:36;195.70;;;59.55;;
46845;SDS011;33947;46.804;134.252;2024-02-26T13:56:44;207.80;;;58.50;;
46845;SDS011;33947;46.804;134.252;2024-02-26T13:59:51;190.35;;;59.83;;
46845;SDS011;33947;46.804;134.252;2024-02-26T14:02:59;242.48;;;75.78;;
46845;SDS011;33947;46.804;134.252;2024-02-26T14:06:06;261.23;;;81.45;;
46845;SDS011;33947;46.804;134.252;2024-02-26T14:09:15;238.18;;;70.70;;
46845;SDS011;33947;46.804;134.252;2024-02-26T14:12:23;251.25;;;69.30;;
46845;SDS011;33947;46.804;134.252;2024-02-26T14:15:30;237.23;;;69.15;;
46845;SDS011;33947;46.804;134.252;2024-02-26T14:18:40;187.48;;;57.95;;
46845;SDS011;33947;46.804;134.252;2024-02-26T14:21:51;183.30;;;58.55;;
46845;SDS011;33947;46.804;134.252;2024-02-26T14:25:00;232.10;;;62.05;;
46845;SDS011;33947;46.804;134.252;2024-02-26T14:28:07;211.18;;;65.75;;
46845;SDS011;33947;46.804;134.252;2024-02-26T14:31:24;160.00;;;55.95;;
46845;SDS011;33947;46.804;134.252;2024-02-26T14:34:31;119.07;;;42.63;;
46845;SDS011;33947;46.804;134.252;2024-02-26T14:37:39;168.30;;;46.17;;
46845;SDS011;33947;46.804;134.252;2024-02-26T14:40:51;187.35;;;54.35;;
46845;SDS011;33947;46.804;134.252;2024-02-26T14:43:59;213.98;;;62.08;;
46845;SDS011;33947;46.804;134.252;2024-02-26T14:47:09;167.68;;;50.20;;
46845;SDS011;33947;46.804;134.252;2024-02-26T14:50:18;151.57;;;47.30;;
46845;SDS011;33947;46.804;134.252;2024-02-26T14:53:26;157.55;;;49.60;;
46845;SDS011;33947;46.804;134.252;2024-02-26T14:56:37;190.75;;;62.72;;
46845;SDS011;33947;46.804;134.252;2024-02-26T14:59:45;205.45;;;60.75;;
46845;SDS011;33947;46.804;134.252;2024-02-26T15:02:54;243.57;;;66.43;;
46845;SDS011;33947;46.804;134.252;2024-02-26T15:06:00;235.95;;;69.18;;
46845;SDS011;33947;46.804;134.252;2024-02-26T15:09:08;243.20;;;65.93;;
46845;SDS011;33947;46.804;134.252;2024-02-26T15:12:19;284.05;;;74.45;;
46845;SDS011;33947;46.804;134.252;2024-02-26T15:15:35;163.50;;;51.38;;
46845;SDS011;33947;46.804;134.252;2024-02-26T15:18:43;104.22;;;37.15;;
46845;SDS011;33947;46.804;134.252;2024-02-26T15:21:50;142.68;;;45.97;;
46845;SDS011;33947;46.804;134.252;2024-02-26T15:24:57;127.47;;;43.25;;
46845;SDS011;33947;46.804;134.252;2024-02-26T15:28:06;139.45;;;47.58;;
46845;SDS011;33947;46.804;134.252;2024-02-26T15:31:15;161.88;;;53.63;;
46845;SDS011;33947;46.804;134.252;2024-02-26T15:34:23;141.40;;;46.70;;
46845;SDS011;33947;46.804;134.252;2024-02-26T15:37:30;145.77;;;46.38;;
46845;SDS011;33947;46.804;134.252;2024-02-26T15:40:37;131.70;;;44.45;;
46845;SDS011;33947;46.804;134.252;2024-02-26T15:43:46;142.93;;;39.75;;
46845;SDS011;33947;46.804;134.252;2024-02-26T15:46:53;122.95;;;39.40;;
46845;SDS011;33947;46.804;134.252;2024-02-26T15:50:01;100.18;;;37.55;;
46845;SDS011;33947;46.804;134.252;2024-02-26T15:53:08;109.78;;;36.92;;
46845;SDS011;33947;46.804;134.252;2024-02-26T15:56:15;101.47;;;32.03;;
46845;SDS011;33947;46.804;134.252;2024-02-26T15:59:27;91.70;;;28.15;;
46845;SDS011;33947;46.804;134.252;2024-02-26T16:02:34;88.18;;;27.02;;
46845;SDS011;33947;46.804;134.252;2024-02-26T16:05:40;77.35;;;26.95;;
46845;SDS011;33947;46.804;134.252;2024-02-26T16:08:48;78.70;;;28.55;;
46845;SDS011;33947;46.804;134.252;2024-02-26T16:11:56;61.03;;;24.10;;
46845;SDS011;33947;46.804;134.252;2024-02-26T16:15:06;59.90;;;23.25;;
46845;SDS011;33947;46.804;134.252;2024-02-26T16:18:14;106.57;;;27.77;;
46845;SDS011;33947;46.804;134.252;2024-02-26T16:21:22;80.70;;;27.58;;
46845;SDS011;33947;46.804;134.252;2024-02-26T16:24:30;64.82;;;28.75;;
46845;SDS011;33947;46.804;134.252;2024-02-26T16:27:37;98.03;;;33.50;;
46845;SDS011;33947;46.804;134.252;2024-02-26T16:30:48;146.45;;;42.63;;
46845;SDS011;33947;46.804;134.252;2024-02-26T16:33:56;95.93;;;32.17;;
46845;SDS011;33947;46.804;134.252;2024-02-26T16:37:04;53.25;;;25.20;;
46845;SDS011;33947;46.804;134.252;2024-02-26T16:40:15;99.90;;;33.08;;
46845;SDS011;33947;46.804;134.252;2024-02-26T16:43:23;78.13;;;26.90;;
46845;SDS011;33947;46.804;134.252;2024-02-26T16:46:31;61.03;;;24.60;;
46845;SDS011;33947;46.804;134.252;2024-02-26T16:49:39;55.47;;;23.23;;
46845;SDS011;33947;46.804;134.252;2024-02-26T16:52:47;85.72;;;25.30;;
46845;SDS011;33947;46.804;134.252;2024-02-26T16:55:55;73.45;;;27.60;;
46845;SDS011;33947;46.804;134.252;2024-02-26T16:59:06;64.22;;;24.17;;
46845;SDS011;33947;46.804;134.252;2024-02-26T17:02:14;71.55;;;26.25;;
46845;SDS011;33947;46.804;134.252;2024-02-26T17:05:21;70.90;;;27.92;;
46845;SDS011;33947;46.804;134.252;2024-02-26T17:08:28;86.57;;;27.42;;
46845;SDS011;33947;46.804;134.252;2024-02-26T17:11:37;70.15;;;25.23;;
46845;SDS011;33947;46.804;134.252;2024-02-26T17:14:45;89.68;;;28.35;;
46845;SDS011;33947;46.804;134.252;2024-02-26T17:17:56;119.07;;;37.35;;
46845;SDS011;33947;46.804;134.252;2024-02-26T17:21:04;132.70;;;42.25;;
46845;SDS011;33947;46.804;134.252;2024-02-26T17:24:11;80.85;;;30.02;;
46845;SDS011;33947;46.804;134.252;2024-02-26T17:27:19;92.72;;;28.73;;
46845;SDS011;33947;46.804;134.252;2024-02-26T17:30:26;54.22;;;22.52;;
46845;SDS011;33947;46.804;134.252;2024-02-26T17:33:37;88.55;;;25.73;;
46845;SDS011;33947;46.804;134.252;2024-02-26T17:36:44;129.60;;;43.53;;
46845;SDS011;33947;46.804;134.252;2024-02-26T17:39:53;149.77;;;45.47;;
46845;SDS011;33947;46.804;134.252;2024-02-26T17:43:00;65.85;;;27.63;;
46845;SDS011;33947;46.804;134.252;2024-02-26T17:46:11;70.53;;;27.75;;
46845;SDS011;33947;46.804;134.252;2024-02-26T17:49:21;83.22;;;33.05;;
46845;SDS011;33947;46.804;134.252;2024-02-26T17:52:32;62.33;;;26.55;;
46845;SDS011;33947;46.804;134.252;2024-02-26T17:55:41;73.50;;;27.88;;
46845;SDS011;33947;46.804;134.252;2024-02-26T17:58:49;64.07;;;23.73;;
46845;SDS011;33947;46.804;134.252;2024-02-26T18:01:59;47.60;;;19.25;;